Ashland, Illinois
Current Conditions -  °F | °C
As of 9:35 AM on Sunday 21 Dec 2014 (Local Time) from KIJX Reporting Station
Overcast Overcast  
Wind Chill:   Ceiling: 2400
Heat Index:   Visibility: 10mi
Dew Point:   Wind: 10mph
Humidity: 79%   Direction: 150°SSE
Pressure: 30.18"   Gusts: NA
Location:  39.89°N, 90.01°W
Report Text: KIJX 211535Z AUTO 15009KT 10SM OVC024 04/01 A3018 RMK AO2 T00430010
Loading
Personal Weather Stations






























Interactive Weather Map New forecast layout! Learn more

10-Day Weather Forecast

Advertisements
Track Severe Weather on mobile